createdAt,value
2022-10-31T00:00:48.669Z,101796.38
2022-10-31T00:03:16.943Z,101795.09
2022-10-31T00:05:45.801Z,101786.88
2022-10-31T00:08:13.635Z,101788.34
2022-10-31T00:10:42.129Z,101786.41
2022-10-31T00:13:10.824Z,101787.84
2022-10-31T00:15:40.026Z,101783.97
2022-10-31T00:18:10.822Z,101789.16
2022-10-31T00:20:40.012Z,101791.56
2022-10-31T00:23:08.624Z,101778.66
2022-10-31T00:25:38.337Z,101782.19
2022-10-31T00:28:07.480Z,101786.53
2022-10-31T00:30:35.718Z,101788.16
2022-10-31T00:33:05.652Z,101788.66
2022-10-31T00:35:35.166Z,101794.13
2022-10-31T00:38:02.947Z,101795.72
2022-10-31T00:40:30.784Z,101790.25
2022-10-31T00:42:59.030Z,101801.19
2022-10-31T00:45:27.052Z,101795.38
2022-10-31T00:47:54.844Z,101796.53
2022-10-31T00:50:22.681Z,101781.69
2022-10-31T00:52:52.220Z,101783.63
2022-10-31T00:55:20.150Z,101786.38
2022-10-31T00:57:49.244Z,101797.31
2022-10-31T01:00:18.147Z,101797.31
2022-10-31T01:02:46.023Z,101787.97
2022-10-31T01:05:14.212Z,101791.03
2022-10-31T01:07:43.211Z,101795.59
2022-10-31T01:10:12.934Z,101794.16
2022-10-31T01:12:42.119Z,101790.94
2022-10-31T01:15:11.586Z,101801.91
2022-10-31T01:17:39.839Z,101789.34
2022-10-31T01:20:10.165Z,101793.22
2022-10-31T01:22:37.954Z,101796.25
2022-10-31T01:25:06.966Z,101799.31
2022-10-31T01:27:36.240Z,101805.94
2022-10-31T01:30:04.386Z,101800.00
2022-10-31T01:32:32.325Z,101792.09
2022-10-31T01:35:00.179Z,101790.34
2022-10-31T01:37:28.112Z,101781.66
2022-10-31T01:39:55.908Z,101778.41
2022-10-31T01:42:24.979Z,101776.81
2022-10-31T01:45:00.496Z,101787.94
2022-10-31T01:47:45.325Z,101789.72
2022-10-31T01:50:17.606Z,101791.66
2022-10-31T01:52:48.401Z,101796.66
2022-10-31T01:55:20.442Z,101787.13
2022-10-31T01:57:52.960Z,101787.81
2022-10-31T02:00:23.855Z,101783.75
2022-10-31T02:02:53.209Z,101782.97
2022-10-31T02:05:24.441Z,101777.66
2022-10-31T02:07:58.270Z,101779.91
2022-10-31T02:10:27.245Z,101785.72
2022-10-31T02:12:59.549Z,101778.50
2022-10-31T02:15:30.642Z,101787.78
2022-10-31T02:17:59.079Z,101792.28
2022-10-31T02:20:31.839Z,101792.28
2022-10-31T02:23:27.404Z,101785.38
2022-10-31T02:26:26.129Z,101782.44
2022-10-31T02:29:18.214Z,101790.19
2022-10-31T02:31:56.442Z,101781.19
2022-10-31T02:34:31.084Z,101786.19
2022-10-31T02:37:03.945Z,101780.22
2022-10-31T02:39:40.960Z,101783.59
2022-10-31T02:42:15.005Z,101791.31
2022-10-31T02:44:51.734Z,101785.38
2022-10-31T02:47:26.319Z,101782.13
2022-10-31T02:49:59.524Z,101773.94
2022-10-31T02:52:30.013Z,101785.66
2022-10-31T02:54:58.160Z,101782.13
2022-10-31T02:57:28.281Z,101779.41
2022-10-31T03:00:00.687Z,101775.53
2022-10-31T03:02:55.962Z,101778.91
2022-10-31T03:05:38.269Z,101777.78
2022-10-31T03:08:15.414Z,101766.84
2022-10-31T03:10:49.408Z,101776.66
2022-10-31T03:15:55.632Z,101778.44
2022-10-31T03:18:31.194Z,101780.69
2022-10-31T03:21:06.104Z,101786.13
2022-10-31T03:23:36.600Z,101782.94
2022-10-31T03:26:07.983Z,101787.59
2022-10-31T03:28:39.732Z,101784.06
2022-10-31T03:31:09.964Z,101783.59
2022-10-31T03:33:42.385Z,101784.72
2022-10-31T03:36:12.854Z,101783.41
2022-10-31T03:38:43.518Z,101786.47
2022-10-31T03:41:16.436Z,101788.72
2022-10-31T03:43:49.970Z,101780.66
2022-10-31T03:46:17.903Z,101783.53
2022-10-31T03:48:47.088Z,101784.19
2022-10-31T03:51:21.358Z,101785.94
2022-10-31T03:53:55.382Z,101786.09
2022-10-31T03:56:30.034Z,101790.59
2022-10-31T03:59:02.574Z,101784.13
2022-10-31T04:01:33.255Z,101792.97
2022-10-31T04:04:04.184Z,101780.75
2022-10-31T04:06:34.027Z,101787.66
2022-10-31T04:09:05.713Z,101782.81
2022-10-31T04:11:37.098Z,101786.19
2022-10-31T04:14:06.848Z,101788.91
2022-10-31T04:16:35.198Z,101788.75
2022-10-31T04:19:04.416Z,101779.28
2022-10-31T04:21:32.922Z,101772.16
2022-10-31T04:24:00.888Z,101774.41
2022-10-31T04:26:28.713Z,101771.22
2022-10-31T04:28:56.597Z,101765.56
2022-10-31T04:31:24.369Z,101768.63
2022-10-31T04:33:52.173Z,101767.81
2022-10-31T04:36:21.538Z,101767.00
2022-10-31T04:38:49.300Z,101772.47
2022-10-31T04:41:17.204Z,101773.59
2022-10-31T04:43:45.044Z,101776.31
2022-10-31T04:46:12.961Z,101766.53
2022-10-31T04:48:40.951Z,101762.19
2022-10-31T04:51:08.755Z,101761.34
2022-10-31T04:53:38.052Z,101767.94
2022-10-31T04:56:06.610Z,101774.53
2022-10-31T04:58:34.643Z,101769.38
2022-10-31T05:01:02.494Z,101772.13
2022-10-31T05:03:30.343Z,101777.06
2022-10-31T05:05:58.289Z,101772.72
2022-10-31T05:08:26.120Z,101764.03
2022-10-31T05:10:56.057Z,101762.25
2022-10-31T05:13:25.083Z,101755.47
2022-10-31T05:15:52.912Z,101757.25
2022-10-31T05:18:20.969Z,101751.78
2022-10-31T05:20:49.097Z,101742.28
2022-10-31T05:23:16.933Z,101741.47
2022-10-31T05:25:44.837Z,101741.81
2022-10-31T05:28:17.212Z,101731.19
2022-10-31T05:30:45.048Z,101734.72
2022-10-31T05:33:14.451Z,101732.00
2022-10-31T05:35:42.447Z,101732.00
2022-10-31T05:38:10.222Z,101737.16
2022-10-31T05:40:38.140Z,101737.63
2022-10-31T05:43:06.117Z,101737.63
2022-10-31T05:45:35.319Z,101749.06
2022-10-31T05:48:04.158Z,101751.78
2022-10-31T05:50:33.493Z,101747.13
2022-10-31T05:53:02.841Z,101747.94
2022-10-31T05:55:31.282Z,101743.28
2022-10-31T05:57:59.819Z,101733.16
2022-10-31T06:00:29.053Z,101740.22
2022-10-31T06:03:02.453Z,101743.28
2022-10-31T06:05:30.975Z,101734.75
2022-10-31T06:07:59.509Z,101733.16
2022-10-31T06:10:28.526Z,101732.03
2022-10-31T06:12:56.603Z,101733.97
2022-10-31T06:15:24.990Z,101734.75
2022-10-31T06:18:05.480Z,101727.22
2022-10-31T06:20:33.755Z,101723.84
2022-10-31T06:23:02.199Z,101723.84
2022-10-31T06:25:30.826Z,101726.56
2022-10-31T06:27:58.815Z,101727.69
2022-10-31T06:30:27.010Z,101731.56
2022-10-31T06:32:54.800Z,101734.59
2022-10-31T06:35:24.028Z,101730.56
2022-10-31T06:37:55.200Z,101732.00
2022-10-31T06:40:23.704Z,101734.53
2022-10-31T06:42:59.212Z,101736.31
2022-10-31T06:45:27.556Z,101741.28
2022-10-31T06:48:16.139Z,101740.78
2022-10-31T06:50:45.440Z,101758.59
2022-10-31T06:53:14.189Z,101748.00
2022-10-31T06:55:42.731Z,101747.47
2022-10-31T06:58:11.982Z,101755.19
2022-10-31T07:00:39.937Z,101742.66
2022-10-31T07:03:09.500Z,101751.97
2022-10-31T07:05:37.460Z,101755.81
2022-10-31T07:08:09.478Z,101758.81
2022-10-31T07:10:40.507Z,101761.56
2022-10-31T07:13:13.495Z,101756.41
2022-10-31T07:15:43.040Z,101755.63
2022-10-31T07:18:12.678Z,101763.00
2022-10-31T07:20:40.761Z,101766.84
2022-10-31T07:23:10.870Z,101761.41
2022-10-31T07:25:39.027Z,101751.59
2022-10-31T07:28:06.984Z,101757.06
2022-10-31T07:30:34.908Z,101755.44
2022-10-31T07:33:02.761Z,101751.59
2022-10-31T07:35:31.075Z,101761.72
2022-10-31T07:37:59.856Z,101755.44
2022-10-31T07:40:29.298Z,101757.06
2022-10-31T07:42:59.740Z,101763.00
2022-10-31T07:45:27.522Z,101750.16
2022-10-31T07:47:55.714Z,101750.97
2022-10-31T07:50:25.384Z,101755.81
2022-10-31T07:53:01.649Z,101756.94
2022-10-31T07:55:31.294Z,101764.47
2022-10-31T07:58:00.654Z,101769.31
2022-10-31T08:00:29.353Z,101761.13
2022-10-31T08:03:01.891Z,101762.25
2022-10-31T08:05:30.802Z,101755.66
2022-10-31T08:07:59.220Z,101763.25
2022-10-31T08:10:29.140Z,101764.22
2022-10-31T08:13:00.141Z,101765.22
2022-10-31T08:15:28.474Z,101766.22
2022-10-31T08:17:56.360Z,101767.66
2022-10-31T08:20:24.657Z,101760.47
2022-10-31T08:22:57.283Z,101762.25
2022-10-31T08:25:25.988Z,101759.06
2022-10-31T08:27:54.370Z,101758.47
2022-10-31T08:30:25.395Z,101762.34
2022-10-31T08:33:00.684Z,101761.09
2022-10-31T08:35:28.640Z,101757.41
2022-10-31T08:37:57.118Z,101752.13
2022-10-31T08:40:26.052Z,101749.84
2022-10-31T08:43:01.589Z,101747.78
2022-10-31T08:45:31.450Z,101744.91
2022-10-31T08:48:01.071Z,101733.34
2022-10-31T08:50:30.337Z,101734.00
2022-10-31T08:53:06.283Z,101740.13
2022-10-31T08:55:36.481Z,101740.47
2022-10-31T08:58:06.003Z,101743.06
2022-10-31T09:00:35.654Z,101734.03
2022-10-31T09:03:05.692Z,101731.13
2022-10-31T09:05:34.331Z,101733.72
2022-10-31T09:08:03.946Z,101728.09
2022-10-31T09:10:33.539Z,101731.78
2022-10-31T09:13:02.824Z,101726.97
2022-10-31T09:15:30.889Z,101724.41
2022-10-31T09:18:00.462Z,101719.88
2022-10-31T09:20:28.816Z,101716.00
2022-10-31T09:23:00.361Z,101708.78
2022-10-31T09:25:29.546Z,101697.16
2022-10-31T09:28:01.495Z,101699.59
2022-10-31T09:30:31.764Z,101695.09
2022-10-31T09:33:02.406Z,101691.06
2022-10-31T09:35:30.954Z,101692.84
2022-10-31T09:38:00.018Z,101686.38
2022-10-31T09:40:33.929Z,101683.00
2022-10-31T09:43:10.478Z,101677.03
2022-10-31T09:45:43.713Z,101675.69
2022-10-31T09:48:31.793Z,101675.19
2022-10-31T09:51:02.610Z,101669.03
2022-10-31T09:53:36.342Z,101659.50
2022-10-31T09:56:09.350Z,101653.53
2022-10-31T09:58:43.667Z,101663.16
2022-10-31T10:01:35.315Z,101661.69
2022-10-31T10:04:20.995Z,101651.47
2022-10-31T10:06:51.872Z,101648.38
2022-10-31T10:12:01.590Z,101637.59
2022-10-31T10:14:41.485Z,101635.56
2022-10-31T10:17:22.917Z,101639.19
2022-10-31T10:20:04.159Z,101640.84
2022-10-31T10:22:41.165Z,101629.78
2022-10-31T10:25:18.437Z,101635.09
2022-10-31T10:27:56.761Z,101636.47
2022-10-31T10:30:30.907Z,101633.53
2022-10-31T10:33:00.713Z,101623.47
2022-10-31T10:35:33.477Z,101630.34
2022-10-31T10:38:11.337Z,101616.53
2022-10-31T10:40:39.931Z,101616.44
2022-10-31T10:43:21.381Z,101611.06
2022-10-31T10:46:11.980Z,101612.13
2022-10-31T10:48:57.930Z,101602.09
2022-10-31T10:51:54.676Z,101589.84
2022-10-31T10:54:56.579Z,101588.47
2022-10-31T10:57:43.407Z,101582.88
2022-10-31T11:00:20.592Z,101578.84
2022-10-31T11:02:49.293Z,101564.31
2022-10-31T11:05:25.061Z,101564.88
2022-10-31T11:07:54.438Z,101559.94
2022-10-31T11:10:22.432Z,101549.16
2022-10-31T11:13:03.668Z,101538.19
2022-10-31T11:15:35.921Z,101532.78
2022-10-31T11:18:03.909Z,101518.44
2022-10-31T11:20:35.635Z,101523.69
2022-10-31T11:23:08.222Z,101524.56
2022-10-31T11:25:36.271Z,101521.63
2022-10-31T11:28:06.151Z,101514.00
2022-10-31T11:30:46.138Z,101512.63
2022-10-31T11:33:21.165Z,101519.22
2022-10-31T11:35:53.396Z,101524.91
2022-10-31T11:38:28.761Z,101524.19
2022-10-31T11:41:00.216Z,101512.50
2022-10-31T11:43:28.732Z,101510.88
2022-10-31T11:45:56.734Z,101510.63
2022-10-31T11:48:26.768Z,101501.69
2022-10-31T11:50:57.795Z,101495.91
2022-10-31T11:53:30.495Z,101494.91
2022-10-31T11:56:08.214Z,101491.91
2022-10-31T11:58:36.063Z,101492.81
2022-10-31T12:01:04.064Z,101499.91
2022-10-31T12:03:44.276Z,101483.41
2022-10-31T12:06:20.718Z,101481.50
2022-10-31T12:08:50.217Z,101482.84
2022-10-31T12:11:41.016Z,101462.41
2022-10-31T12:14:19.363Z,101456.41
2022-10-31T12:16:52.589Z,101452.56
2022-10-31T12:19:35.064Z,101449.13
2022-10-31T12:22:13.927Z,101437.91
2022-10-31T12:24:56.856Z,101441.25
2022-10-31T12:27:37.323Z,101444.59
2022-10-31T12:30:17.455Z,101439.69
2022-10-31T12:33:07.057Z,101433.44
2022-10-31T12:35:46.748Z,101434.75
2022-10-31T12:38:28.945Z,101425.47
2022-10-31T12:41:13.376Z,101414.53
2022-10-31T12:43:48.544Z,101407.47
2022-10-31T12:46:27.025Z,101400.00
2022-10-31T12:49:18.624Z,101384.72
2022-10-31T12:51:55.381Z,101381.78
2022-10-31T12:54:45.507Z,101372.09
2022-10-31T12:57:25.254Z,101372.22
2022-10-31T12:59:58.920Z,101369.59
2022-10-31T13:02:31.851Z,101375.19
2022-10-31T13:05:04.502Z,101361.03
2022-10-31T13:07:39.489Z,101354.03
2022-10-31T13:10:17.324Z,101344.28
2022-10-31T13:12:50.157Z,101338.03
2022-10-31T13:15:23.034Z,101321.09
2022-10-31T13:17:55.155Z,101323.50
2022-10-31T13:20:27.785Z,101310.88
2022-10-31T13:23:05.306Z,101296.34
2022-10-31T13:25:46.782Z,101289.69
2022-10-31T13:28:28.710Z,101285.63
2022-10-31T13:30:56.582Z,101275.00
2022-10-31T13:33:29.692Z,101272.25
2022-10-31T13:36:16.912Z,101259.63
2022-10-31T13:38:52.634Z,101255.47
2022-10-31T13:41:35.060Z,101254.22
2022-10-31T13:44:11.860Z,101255.00
2022-10-31T13:49:39.035Z,101258.91
2022-10-31T13:52:18.406Z,101269.97
2022-10-31T13:54:48.189Z,101264.53
2022-10-31T13:57:20.319Z,101270.88
2022-10-31T13:59:53.680Z,101270.88
2022-10-31T14:02:28.020Z,101258.66
2022-10-31T14:05:00.304Z,101244.88
2022-10-31T14:07:29.850Z,101240.94
2022-10-31T14:10:01.399Z,101230.34
2022-10-31T14:12:33.724Z,101213.34
2022-10-31T14:15:07.746Z,101205.09
2022-10-31T14:17:46.970Z,101216.56
2022-10-31T14:20:40.812Z,101201.59
2022-10-31T14:23:41.455Z,101218.56
2022-10-31T14:26:21.323Z,101216.59
2022-10-31T14:28:50.852Z,101208.78
2022-10-31T14:31:37.502Z,101210.38
2022-10-31T14:34:21.493Z,101200.19
2022-10-31T14:37:01.402Z,101200.28
2022-10-31T14:39:36.878Z,101190.09
2022-10-31T14:42:22.709Z,101185.38
2022-10-31T14:45:17.821Z,101180.53
2022-10-31T14:47:58.295Z,101178.63
2022-10-31T14:50:39.232Z,101167.97
2022-10-31T14:53:08.271Z,101163.63
2022-10-31T14:55:36.347Z,101170.31
2022-10-31T14:58:09.281Z,101172.22
2022-10-31T15:00:38.170Z,101156.84
2022-10-31T15:03:16.732Z,101154.47
2022-10-31T15:05:50.642Z,101151.25
2022-10-31T15:08:32.951Z,101144.91
2022-10-31T15:11:04.412Z,101144.91
2022-10-31T15:13:32.310Z,101131.44
2022-10-31T15:16:00.308Z,101125.84
2022-10-31T15:18:30.643Z,101117.09
2022-10-31T15:20:59.145Z,101119.41
2022-10-31T15:23:29.355Z,101126.44
2022-10-31T15:26:01.830Z,101111.47
2022-10-31T15:28:30.287Z,101120.47
2022-10-31T15:30:59.937Z,101132.66
2022-10-31T15:33:38.305Z,101113.34
2022-10-31T15:36:08.390Z,101106.56
2022-10-31T15:38:36.423Z,101119.84
2022-10-31T15:41:06.896Z,101109.59
2022-10-31T15:43:37.735Z,101103.22
2022-10-31T15:46:09.838Z,101116.91
2022-10-31T15:48:41.574Z,101116.38
2022-10-31T15:51:09.453Z,101103.69
2022-10-31T15:53:43.937Z,101103.56
2022-10-31T15:56:15.392Z,101101.88
2022-10-31T15:58:48.151Z,101095.47
2022-10-31T16:01:24.926Z,101096.09
2022-10-31T16:04:06.650Z,101096.34
2022-10-31T16:06:36.425Z,101090.38
2022-10-31T16:09:06.155Z,101077.63
2022-10-31T16:11:39.268Z,101085.34
2022-10-31T16:14:16.245Z,101077.38
2022-10-31T16:16:47.408Z,101074.97
2022-10-31T16:19:21.550Z,101066.97
2022-10-31T16:21:52.402Z,101077.91
2022-10-31T16:24:24.722Z,101061.34
2022-10-31T16:26:54.864Z,101061.25
2022-10-31T16:29:30.751Z,101061.22
2022-10-31T16:31:58.700Z,101069.03
2022-10-31T16:34:27.923Z,101068.59
2022-10-31T16:36:55.905Z,101068.97
2022-10-31T16:39:23.743Z,101069.34
2022-10-31T16:41:56.893Z,101072.84
2022-10-31T16:44:26.901Z,101068.03
2022-10-31T16:47:10.803Z,101060.81
2022-10-31T16:49:40.244Z,101066.31
2022-10-31T16:52:08.032Z,101067.06
2022-10-31T16:54:36.210Z,101067.78
2022-10-31T16:57:06.679Z,101070.88
2022-10-31T16:59:36.216Z,101068.06
2022-10-31T17:02:05.787Z,101064.88
2022-10-31T17:04:33.759Z,101058.97
2022-10-31T17:07:03.071Z,101073.88
2022-10-31T17:09:31.025Z,101067.50
2022-10-31T17:11:59.013Z,101066.66
2022-10-31T17:14:27.579Z,101065.69
2022-10-31T17:16:58.239Z,101060.50
2022-10-31T17:19:26.034Z,101058.81
2022-10-31T17:21:54.048Z,101052.47
2022-10-31T17:24:23.477Z,101058.25
2022-10-31T17:26:51.377Z,101045.47
2022-10-31T17:31:47.090Z,101048.78
2022-10-31T17:34:15.071Z,101044.03
2022-10-31T17:36:42.872Z,101049.00
2022-10-31T17:39:10.704Z,101050.06
2022-10-31T17:41:39.891Z,101043.72
2022-10-31T17:44:07.732Z,101036.91
2022-10-31T17:46:35.555Z,101033.63
2022-10-31T17:49:05.052Z,101030.38
2022-10-31T17:51:32.901Z,101031.81
2022-10-31T17:54:00.689Z,101023.06
2022-10-31T17:56:28.465Z,101025.28
2022-10-31T17:58:58.278Z,101018.88
2022-10-31T18:01:26.259Z,101019.19
2022-10-31T18:03:54.126Z,101017.94
2022-10-31T18:06:21.976Z,101017.88
2022-10-31T18:08:49.757Z,101019.38
2022-10-31T18:11:20.809Z,101017.69
2022-10-31T18:13:48.713Z,101008.09
2022-10-31T18:16:19.694Z,101007.22
2022-10-31T18:18:51.653Z,101004.94
2022-10-31T18:21:19.514Z,101010.41
2022-10-31T18:23:47.793Z,101001.72
2022-10-31T18:26:15.735Z,101001.72
2022-10-31T18:28:43.654Z,101000.22
2022-10-31T18:31:11.588Z,101007.66
2022-10-31T18:33:42.507Z,101001.03
2022-10-31T18:36:12.203Z,100999.44
2022-10-31T18:38:41.721Z,101004.13
2022-10-31T18:41:10.246Z,100997.13
2022-10-31T18:43:38.586Z,101005.78
2022-10-31T18:46:08.919Z,100992.88
2022-10-31T18:48:37.313Z,100989.81
2022-10-31T18:51:08.534Z,100988.66
2022-10-31T18:53:37.372Z,100994.22
2022-10-31T18:56:08.887Z,100990.31
2022-10-31T18:58:37.078Z,100978.72
2022-10-31T19:01:07.874Z,100974.81
2022-10-31T19:03:35.869Z,100977.22
2022-10-31T19:06:04.102Z,100975.69
2022-10-31T19:08:33.868Z,100974.53
2022-10-31T19:17:22.053Z,100964.50
2022-10-31T19:29:57.330Z,100962.56
2022-10-31T19:32:29.583Z,100963.00
2022-10-31T19:38:56.473Z,100958.06
2022-10-31T19:44:51.496Z,100958.34
2022-10-31T19:47:44.032Z,100948.81
2022-10-31T19:51:39.084Z,100962.06
2022-10-31T19:54:41.066Z,100952.97
2022-10-31T19:58:05.401Z,100954.13
2022-10-31T20:00:37.881Z,100952.63
2022-10-31T20:09:21.267Z,100950.47
2022-10-31T20:12:21.626Z,100949.94
2022-10-31T20:15:48.351Z,100943.22
2022-10-31T20:24:39.546Z,100931.72
2022-10-31T20:34:28.754Z,100917.41
2022-10-31T20:37:00.140Z,100919.38
2022-10-31T20:43:13.342Z,100905.53
2022-10-31T20:52:53.607Z,100897.69
2022-10-31T20:55:34.827Z,100894.69
2022-10-31T21:04:46.590Z,100879.88
2022-10-31T21:07:17.232Z,100870.16
2022-10-31T21:10:40.846Z,100867.41
2022-10-31T21:20:22.777Z,100871.16
2022-10-31T21:25:56.726Z,100869.41
2022-10-31T21:29:08.416Z,100869.84
2022-10-31T21:31:43.268Z,100867.44
2022-10-31T21:34:35.523Z,100858.41
2022-10-31T21:37:25.028Z,100858.94
2022-10-31T21:42:57.133Z,100850.84
2022-10-31T21:45:25.610Z,100848.53
2022-10-31T21:47:53.845Z,100839.19
2022-10-31T21:50:22.712Z,100838.00
2022-10-31T21:52:52.253Z,100834.47
2022-10-31T21:55:19.352Z,100828.19
2022-10-31T21:57:47.322Z,100832.06
2022-10-31T22:00:16.137Z,100828.91
2022-10-31T22:02:44.327Z,100833.53
2022-10-31T22:05:12.492Z,100838.25
2022-10-31T22:07:40.726Z,100828.75
2022-10-31T22:10:11.615Z,100817.78
2022-10-31T22:12:39.708Z,100819.81
2022-10-31T22:15:08.710Z,100819.81
2022-10-31T22:17:37.370Z,100824.16
2022-10-31T22:20:06.245Z,100809.19
2022-10-31T22:22:34.292Z,100806.81
2022-10-31T22:25:02.320Z,100808.31
2022-10-31T22:27:31.847Z,100800.88
2022-10-31T22:30:00.145Z,100822.84
2022-10-31T22:32:28.461Z,100820.47
2022-10-31T22:34:56.645Z,100812.22
2022-10-31T22:37:24.720Z,100813.03
2022-10-31T22:39:52.973Z,100794.19
2022-10-31T22:42:21.232Z,100791.44
2022-10-31T22:44:50.852Z,100783.09
2022-10-31T22:47:18.906Z,100788.69
2022-10-31T22:49:47.294Z,100790.63
2022-10-31T22:52:15.470Z,100790.16
2022-10-31T22:54:44.188Z,100790.53
2022-10-31T22:57:12.300Z,100785.41
2022-10-31T22:59:40.439Z,100781.13
2022-10-31T23:02:12.436Z,100782.28
2022-10-31T23:04:40.860Z,100775.28
2022-10-31T23:07:11.282Z,100774.59
2022-10-31T23:09:42.085Z,100777.03
2022-10-31T23:12:33.303Z,100772.06
2022-10-31T23:15:01.680Z,100773.31
2022-10-31T23:17:31.332Z,100775.03
2022-10-31T23:19:59.420Z,100795.44
2022-10-31T23:22:27.638Z,100789.31
2022-10-31T23:24:55.756Z,100779.13
2022-10-31T23:27:24.644Z,100783.06
2022-10-31T23:29:54.208Z,100778.47
2022-10-31T23:32:25.143Z,100775.34
2022-10-31T23:34:56.827Z,100773.84
2022-10-31T23:37:27.110Z,100780.91
2022-10-31T23:39:55.318Z,100776.22
2022-10-31T23:42:24.274Z,100775.47
2022-10-31T23:44:52.753Z,100778.31
2022-10-31T23:47:21.332Z,100768.47
2022-10-31T23:49:49.650Z,100772.44
2022-10-31T23:52:19.643Z,100778.34
2022-10-31T23:54:47.782Z,100771.69
2022-10-31T23:57:17.308Z,100769.31
2022-10-31T23:59:46.612Z,100764.56
